sensor_id;sensor_type;location;lat;lon;timestamp;pressure;altitude;pressure_sealevel;temperature;humidity
8451;BME280;4262;50.980;13.892;2023-11-21T00:02:25;87848.28;;;-142.97;77.26
8451;BME280;4262;50.980;13.892;2023-11-21T00:04:52;88335.19;;;-142.97;77.09
8451;BME280;4262;50.980;13.892;2023-11-21T00:07:21;88439.69;;;-142.97;76.99
8451;BME280;4262;50.980;13.892;2023-11-21T00:09:48;86557.38;;;-142.97;77.78
8451;BME280;4262;50.980;13.892;2023-11-21T00:12:15;86866.75;;;-142.97;77.81
8451;BME280;4262;50.980;13.892;2023-11-21T00:14:42;86397.78;;;-142.97;77.92
8451;BME280;4262;50.980;13.892;2023-11-21T00:17:09;87006.69;;;-142.97;77.69
8451;BME280;4262;50.980;13.892;2023-11-21T00:19:36;86862.81;;;-142.97;77.76
8451;BME280;4262;50.980;13.892;2023-11-21T00:22:03;87627.50;;;-142.97;77.50
8451;BME280;4262;50.980;13.892;2023-11-21T00:24:31;86441.13;;;-142.97;77.91
8451;BME280;4262;50.980;13.892;2023-11-21T00:26:58;86068.75;;;-142.97;77.78
8451;BME280;4262;50.980;13.892;2023-11-21T00:29:25;85532.91;;;-142.97;77.89
8451;BME280;4262;50.980;13.892;2023-11-21T00:31:52;86429.31;;;-142.97;77.65
8451;BME280;4262;50.980;13.892;2023-11-21T00:34:19;87331.84;;;-142.97;77.33
8451;BME280;4262;50.980;13.892;2023-11-21T00:36:46;88086.78;;;-142.97;77.01
8451;BME280;4262;50.980;13.892;2023-11-21T00:39:13;88804.44;;;-142.97;76.57
8451;BME280;4262;50.980;13.892;2023-11-21T00:41:41;88901.03;;;-142.97;76.24
8451;BME280;4262;50.980;13.892;2023-11-21T00:44:10;89058.78;;;-142.97;75.94
8451;BME280;4262;50.980;13.892;2023-11-21T00:46:37;89139.63;;;-142.97;75.59
8451;BME280;4262;50.980;13.892;2023-11-21T00:49:04;89257.94;;;-142.97;75.37
8451;BME280;4262;50.980;13.892;2023-11-21T00:51:31;89196.81;;;-142.97;75.42
8451;BME280;4262;50.980;13.892;2023-11-21T00:53:58;89232.31;;;-142.97;75.20
8451;BME280;4262;50.980;13.892;2023-11-21T00:56:25;89234.28;;;-142.97;75.07
8451;BME280;4262;50.980;13.892;2023-11-21T00:58:54;89244.16;;;-142.97;75.13
8451;BME280;4262;50.980;13.892;2023-11-21T01:01:21;89248.09;;;-142.97;75.33
8451;BME280;4262;50.980;13.892;2023-11-21T01:03:50;89104.16;;;-142.97;75.45
8451;BME280;4262;50.980;13.892;2023-11-21T01:06:18;89230.34;;;-142.97;75.17
8451;BME280;4262;50.980;13.892;2023-11-21T01:08:45;89192.88;;;-142.97;75.23
8451;BME280;4262;50.980;13.892;2023-11-21T01:11:12;89104.16;;;-142.97;75.69
8451;BME280;4262;50.980;13.892;2023-11-21T01:13:39;89033.16;;;-142.97;75.80
8451;BME280;4262;50.980;13.892;2023-11-21T01:16:08;88573.75;;;-142.97;76.51
8451;BME280;4262;50.980;13.892;2023-11-21T01:18:35;88063.13;;;-142.97;76.85
8451;BME280;4262;50.980;13.892;2023-11-21T01:21:03;87867.97;;;-142.97;77.11
8451;BME280;4262;50.980;13.892;2023-11-21T01:23:30;88193.25;;;-142.97;76.71
8451;BME280;4262;50.980;13.892;2023-11-21T01:25:57;87164.34;;;-142.97;77.22
8451;BME280;4262;50.980;13.892;2023-11-21T01:28:24;87416.59;;;-142.97;77.12
8451;BME280;4262;50.980;13.892;2023-11-21T01:30:52;88132.13;;;-142.97;76.90
8451;BME280;4262;50.980;13.892;2023-11-21T01:33:23;87962.59;;;-142.97;76.86
8451;BME280;4262;50.980;13.892;2023-11-21T01:35:51;87396.91;;;-142.97;77.16
8451;BME280;4262;50.980;13.892;2023-11-21T01:38:20;87814.75;;;-142.97;76.97
8451;BME280;4262;50.980;13.892;2023-11-21T01:40:47;88274.06;;;-142.97;76.67
8451;BME280;4262;50.980;13.892;2023-11-21T01:43:14;88981.88;;;-142.97;75.77
8451;BME280;4262;50.980;13.892;2023-11-21T01:45:43;88930.63;;;-142.97;76.41
8451;BME280;4262;50.980;13.892;2023-11-21T01:48:12;88906.97;;;-142.97;76.20
8451;BME280;4262;50.980;13.892;2023-11-21T01:50:41;88082.84;;;-142.97;76.85
8451;BME280;4262;50.980;13.892;2023-11-21T01:53:10;87300.31;;;-142.97;77.32
8451;BME280;4262;50.980;13.892;2023-11-21T01:55:40;87623.56;;;-142.97;77.04
8451;BME280;4262;50.980;13.892;2023-11-21T01:58:07;87166.31;;;-142.97;77.39
8451;BME280;4262;50.980;13.892;2023-11-21T02:00:35;86825.38;;;-142.97;77.43
8451;BME280;4262;50.980;13.892;2023-11-21T02:03:04;86525.84;;;-142.97;77.84
8451;BME280;4262;50.980;13.892;2023-11-21T02:05:32;85349.72;;;-142.97;78.21
8451;BME280;4262;50.980;13.892;2023-11-21T02:08:01;85881.59;;;-142.97;77.84
8451;BME280;4262;50.980;13.892;2023-11-21T02:10:29;86009.66;;;-142.97;77.70
8451;BME280;4262;50.980;13.892;2023-11-21T02:12:57;85460.03;;;-142.97;77.98
8451;BME280;4262;50.980;13.892;2023-11-21T02:15:25;82955.31;;;-142.97;78.33
8451;BME280;4262;50.980;13.892;2023-11-21T02:17:54;86441.13;;;-142.97;77.50
8451;BME280;4262;50.980;13.892;2023-11-21T02:20:24;86322.91;;;-142.97;77.74
8451;BME280;4262;50.980;13.892;2023-11-21T02:22:54;87578.22;;;-142.97;77.19
8451;BME280;4262;50.980;13.892;2023-11-21T02:25:23;88187.34;;;-142.97;76.78
8451;BME280;4262;50.980;13.892;2023-11-21T02:27:50;88611.19;;;-142.97;76.56
8451;BME280;4262;50.980;13.892;2023-11-21T02:30:17;88849.78;;;-142.97;75.91
8451;BME280;4262;50.980;13.892;2023-11-21T02:32:45;89003.56;;;-142.97;75.84
8451;BME280;4262;50.980;13.892;2023-11-21T02:35:12;88968.09;;;-142.97;75.77
8451;BME280;4262;50.980;13.892;2023-11-21T02:37:39;89163.28;;;-142.97;75.21
8451;BME280;4262;50.980;13.892;2023-11-21T02:40:09;89185.00;;;-142.97;75.22
8451;BME280;4262;50.980;13.892;2023-11-21T02:42:38;89206.69;;;-142.97;74.89
8451;BME280;4262;50.980;13.892;2023-11-21T02:45:06;89206.69;;;-142.97;74.72
8451;BME280;4262;50.980;13.892;2023-11-21T02:47:33;89222.47;;;-142.97;74.44
8451;BME280;4262;50.980;13.892;2023-11-21T02:50:00;89232.31;;;-142.97;74.37
8451;BME280;4262;50.980;13.892;2023-11-21T02:52:27;89214.56;;;-142.97;74.53
8451;BME280;4262;50.980;13.892;2023-11-21T02:54:54;89218.50;;;-142.97;74.43
8451;BME280;4262;50.980;13.892;2023-11-21T02:57:22;89204.72;;;-142.97;74.67
8451;BME280;4262;50.980;13.892;2023-11-21T02:59:49;89192.88;;;-142.97;74.38
8451;BME280;4262;50.980;13.892;2023-11-21T03:02:16;89186.97;;;-142.97;74.53
8451;BME280;4262;50.980;13.892;2023-11-21T03:04:43;89206.69;;;-142.97;74.42
8451;BME280;4262;50.980;13.892;2023-11-21T03:10:34;89214.56;;;-142.97;73.93
8451;BME280;4262;50.980;13.892;2023-11-21T03:13:03;89165.28;;;-142.97;74.16
8451;BME280;4262;50.980;13.892;2023-11-21T03:15:31;89222.47;;;-142.97;73.90
8451;BME280;4262;50.980;13.892;2023-11-21T03:17:58;89165.28;;;-142.97;74.44
8451;BME280;4262;50.980;13.892;2023-11-21T03:20:25;89192.88;;;-142.97;74.39
8451;BME280;4262;50.980;13.892;2023-11-21T03:22:52;89198.78;;;-142.97;74.10
8451;BME280;4262;50.980;13.892;2023-11-21T03:25:19;89185.00;;;-142.97;74.18
8451;BME280;4262;50.980;13.892;2023-11-21T03:27:47;89208.66;;;-142.97;74.44
8451;BME280;4262;50.980;13.892;2023-11-21T03:30:15;89175.13;;;-142.97;74.05
8451;BME280;4262;50.980;13.892;2023-11-21T03:32:42;89196.81;;;-142.97;73.64
8451;BME280;4262;50.980;13.892;2023-11-21T03:35:09;89202.75;;;-142.97;74.55
8451;BME280;4262;50.980;13.892;2023-11-21T03:37:36;89186.97;;;-142.97;74.82
8451;BME280;4262;50.980;13.892;2023-11-21T03:40:05;89190.91;;;-142.97;74.86
8451;BME280;4262;50.980;13.892;2023-11-21T03:42:34;89216.53;;;-142.97;74.79
8451;BME280;4262;50.980;13.892;2023-11-21T03:45:01;89220.47;;;-142.97;74.09
8451;BME280;4262;50.980;13.892;2023-11-21T03:47:30;89200.75;;;-142.97;74.02
8451;BME280;4262;50.980;13.892;2023-11-21T03:49:57;89214.56;;;-142.97;73.76
8451;BME280;4262;50.980;13.892;2023-11-21T03:52:24;89196.81;;;-142.97;74.07
8451;BME280;4262;50.980;13.892;2023-11-21T03:54:52;89220.47;;;-142.97;73.93
8451;BME280;4262;50.980;13.892;2023-11-21T03:57:20;89222.47;;;-142.97;74.09
8451;BME280;4262;50.980;13.892;2023-11-21T03:59:47;89222.47;;;-142.97;73.72
8451;BME280;4262;50.980;13.892;2023-11-21T04:02:14;89220.47;;;-142.97;73.97
8451;BME280;4262;50.980;13.892;2023-11-21T04:04:42;89238.22;;;-142.97;73.68
8451;BME280;4262;50.980;13.892;2023-11-21T04:07:09;89246.13;;;-142.97;73.90
8451;BME280;4262;50.980;13.892;2023-11-21T04:09:36;89234.28;;;-142.97;74.18
8451;BME280;4262;50.980;13.892;2023-11-21T04:12:04;89240.22;;;-142.97;74.46
8451;BME280;4262;50.980;13.892;2023-11-21T04:14:31;89238.22;;;-142.97;74.79
8451;BME280;4262;50.980;13.892;2023-11-21T04:16:58;89275.69;;;-142.97;74.89
8451;BME280;4262;50.980;13.892;2023-11-21T04:19:25;89252.03;;;-142.97;74.92
8451;BME280;4262;50.980;13.892;2023-11-21T04:21:53;89246.13;;;-142.97;74.99
8451;BME280;4262;50.980;13.892;2023-11-21T04:24:20;89250.06;;;-142.97;75.11
8451;BME280;4262;50.980;13.892;2023-11-21T04:26:47;89261.91;;;-142.97;74.84
8451;BME280;4262;50.980;13.892;2023-11-21T04:29:14;89212.59;;;-142.97;75.09
8451;BME280;4262;50.980;13.892;2023-11-21T04:31:41;89277.69;;;-142.97;74.89
8451;BME280;4262;50.980;13.892;2023-11-21T04:34:08;89271.75;;;-142.97;74.89
8451;BME280;4262;50.980;13.892;2023-11-21T04:36:35;89267.81;;;-142.97;74.79
8451;BME280;4262;50.980;13.892;2023-11-21T04:39:04;89263.88;;;-142.97;74.82
8451;BME280;4262;50.980;13.892;2023-11-21T04:41:32;89261.91;;;-142.97;74.92
8451;BME280;4262;50.980;13.892;2023-11-21T04:43:59;89273.72;;;-142.97;74.82
8451;BME280;4262;50.980;13.892;2023-11-21T04:46:26;89269.78;;;-142.97;74.72
8451;BME280;4262;50.980;13.892;2023-11-21T04:48:53;89283.59;;;-142.97;74.63
8451;BME280;4262;50.980;13.892;2023-11-21T04:51:20;89297.41;;;-142.97;74.81
8451;BME280;4262;50.980;13.892;2023-11-21T04:53:47;89307.25;;;-142.97;74.74
8451;BME280;4262;50.980;13.892;2023-11-21T04:56:15;89279.66;;;-142.97;74.79
8451;BME280;4262;50.980;13.892;2023-11-21T04:58:42;89175.13;;;-142.97;75.54
8451;BME280;4262;50.980;13.892;2023-11-21T05:01:10;89165.28;;;-142.97;75.69
8451;BME280;4262;50.980;13.892;2023-11-21T05:03:37;89216.53;;;-142.97;75.49
8451;BME280;4262;50.980;13.892;2023-11-21T05:06:05;89244.16;;;-142.97;75.48
8451;BME280;4262;50.980;13.892;2023-11-21T05:08:31;89240.22;;;-142.97;75.49
8451;BME280;4262;50.980;13.892;2023-11-21T05:10:59;88993.72;;;-142.97;76.06
8451;BME280;4262;50.980;13.892;2023-11-21T05:13:28;88717.66;;;-142.97;76.56
8451;BME280;4262;50.980;13.892;2023-11-21T05:15:55;88524.44;;;-142.97;76.80
8451;BME280;4262;50.980;13.892;2023-11-21T05:18:23;88772.88;;;-142.97;76.50
8451;BME280;4262;50.980;13.892;2023-11-21T05:20:52;89041.03;;;-142.97;75.97
8451;BME280;4262;50.980;13.892;2023-11-21T05:23:19;88944.41;;;-142.97;76.43
8451;BME280;4262;50.980;13.892;2023-11-21T05:25:46;89064.69;;;-142.97;75.82
8451;BME280;4262;50.980;13.892;2023-11-21T05:28:12;89050.91;;;-142.97;75.90
8451;BME280;4262;50.980;13.892;2023-11-21T05:30:40;89039.06;;;-142.97;76.12
8451;BME280;4262;50.980;13.892;2023-11-21T05:33:07;89123.88;;;-142.97;75.79
8451;BME280;4262;50.980;13.892;2023-11-21T05:35:34;89167.25;;;-142.97;75.71
8451;BME280;4262;50.980;13.892;2023-11-21T05:38:01;89082.44;;;-142.97;75.85
8451;BME280;4262;50.980;13.892;2023-11-21T05:40:28;89082.44;;;-142.97;76.01
8451;BME280;4262;50.980;13.892;2023-11-21T05:42:55;89129.78;;;-142.97;75.46
8451;BME280;4262;50.980;13.892;2023-11-21T05:45:22;89147.53;;;-142.97;75.62
8451;BME280;4262;50.980;13.892;2023-11-21T05:47:50;88993.72;;;-142.97;76.00
8451;BME280;4262;50.980;13.892;2023-11-21T05:50:17;89110.06;;;-142.97;75.85
8451;BME280;4262;50.980;13.892;2023-11-21T05:52:46;89086.41;;;-142.97;75.91
8451;BME280;4262;50.980;13.892;2023-11-21T05:55:13;89177.09;;;-142.97;75.59
8451;BME280;4262;50.980;13.892;2023-11-21T05:57:41;89181.03;;;-142.97;75.16
8451;BME280;4262;50.980;13.892;2023-11-21T06:00:11;89226.41;;;-142.97;74.96
8451;BME280;4262;50.980;13.892;2023-11-21T06:02:43;89244.16;;;-142.97;74.87
8451;BME280;4262;50.980;13.892;2023-11-21T06:05:12;89244.16;;;-142.97;74.57
8451;BME280;4262;50.980;13.892;2023-11-21T06:07:39;89216.53;;;-142.97;74.87
8451;BME280;4262;50.980;13.892;2023-11-21T06:10:07;89234.28;;;-142.97;74.72
8451;BME280;4262;50.980;13.892;2023-11-21T06:12:36;89259.94;;;-142.97;74.75
8451;BME280;4262;50.980;13.892;2023-11-21T06:15:03;89096.25;;;-142.97;75.28
8451;BME280;4262;50.980;13.892;2023-11-21T06:17:33;89228.38;;;-142.97;74.94
8451;BME280;4262;50.980;13.892;2023-11-21T06:20:01;89228.38;;;-142.97;75.13
8451;BME280;4262;50.980;13.892;2023-11-21T06:22:31;89167.25;;;-142.97;75.75
8451;BME280;4262;50.980;13.892;2023-11-21T06:24:57;88828.09;;;-142.97;76.27
8451;BME280;4262;50.980;13.892;2023-11-21T06:27:24;88847.81;;;-142.97;76.39
8451;BME280;4262;50.980;13.892;2023-11-21T06:29:51;88648.66;;;-142.97;76.63
8451;BME280;4262;50.980;13.892;2023-11-21T06:32:18;88906.97;;;-142.97;76.21
8451;BME280;4262;50.980;13.892;2023-11-21T06:34:45;88828.09;;;-142.97;76.25
8451;BME280;4262;50.980;13.892;2023-11-21T06:37:12;88751.19;;;-142.97;76.39
8451;BME280;4262;50.980;13.892;2023-11-21T06:39:40;88826.13;;;-142.97;76.31
8451;BME280;4262;50.980;13.892;2023-11-21T06:42:08;88918.78;;;-142.97;76.00
8451;BME280;4262;50.980;13.892;2023-11-21T06:44:34;89031.19;;;-142.97;75.83
8451;BME280;4262;50.980;13.892;2023-11-21T06:47:03;89066.69;;;-142.97;75.83
8451;BME280;4262;50.980;13.892;2023-11-21T06:49:30;89078.50;;;-142.97;75.77
8451;BME280;4262;50.980;13.892;2023-11-21T06:51:57;89060.75;;;-142.97;75.67
8451;BME280;4262;50.980;13.892;2023-11-21T06:54:24;89100.19;;;-142.97;75.24
8451;BME280;4262;50.980;13.892;2023-11-21T06:56:52;89129.78;;;-142.97;74.77
8451;BME280;4262;50.980;13.892;2023-11-21T06:59:19;89222.47;;;-142.97;73.93
8451;BME280;4262;50.980;13.892;2023-11-21T07:01:46;89192.88;;;-142.97;74.09
8451;BME280;4262;50.980;13.892;2023-11-21T07:04:13;89179.06;;;-142.97;74.43
8451;BME280;4262;50.980;13.892;2023-11-21T07:06:40;89137.66;;;-142.97;74.84
8451;BME280;4262;50.980;13.892;2023-11-21T07:09:09;89179.06;;;-142.97;74.63
8451;BME280;4262;50.980;13.892;2023-11-21T07:11:37;89117.94;;;-142.97;75.28
8451;BME280;4262;50.980;13.892;2023-11-21T07:14:06;89165.28;;;-142.97;74.51
8451;BME280;4262;50.980;13.892;2023-11-21T07:16:34;89244.16;;;-142.97;74.67
8451;BME280;4262;50.980;13.892;2023-11-21T07:19:03;89157.38;;;-142.97;74.89
8451;BME280;4262;50.980;13.892;2023-11-21T07:21:31;89167.25;;;-142.97;74.67
8451;BME280;4262;50.980;13.892;2023-11-21T07:23:58;89204.72;;;-142.97;74.67
8451;BME280;4262;50.980;13.892;2023-11-21T07:26:25;89185.00;;;-142.97;74.85
8451;BME280;4262;50.980;13.892;2023-11-21T07:28:52;89196.81;;;-142.97;74.34
8451;BME280;4262;50.980;13.892;2023-11-21T07:31:20;89212.59;;;-142.97;74.34
8451;BME280;4262;50.980;13.892;2023-11-21T07:33:47;89147.53;;;-142.97;74.93
8451;BME280;4262;50.980;13.892;2023-11-21T07:36:15;89167.25;;;-142.97;75.03
8451;BME280;4262;50.980;13.892;2023-11-21T07:38:44;89194.84;;;-142.97;74.87
8451;BME280;4262;50.980;13.892;2023-11-21T07:41:11;89202.75;;;-142.97;75.08
8451;BME280;4262;50.980;13.892;2023-11-21T07:43:41;89143.56;;;-142.97;75.36
8451;BME280;4262;50.980;13.892;2023-11-21T07:46:08;88589.50;;;-142.97;76.26
8451;BME280;4262;50.980;13.892;2023-11-21T07:48:36;89084.41;;;-142.97;75.41
8451;BME280;4262;50.980;13.892;2023-11-21T07:51:03;89177.09;;;-142.97;74.82
8451;BME280;4262;50.980;13.892;2023-11-21T07:53:30;89185.00;;;-142.97;75.10
8451;BME280;4262;50.980;13.892;2023-11-21T07:55:58;89175.13;;;-142.97;74.89
8451;BME280;4262;50.980;13.892;2023-11-21T07:58:25;89102.16;;;-142.97;75.42
8451;BME280;4262;50.980;13.892;2023-11-21T08:00:52;88469.25;;;-142.97;76.66
8451;BME280;4262;50.980;13.892;2023-11-21T08:03:19;88550.09;;;-142.97;76.66
8451;BME280;4262;50.980;13.892;2023-11-21T08:05:48;87554.56;;;-142.97;77.14
8451;BME280;4262;50.980;13.892;2023-11-21T08:08:15;84148.38;;;-142.97;78.18
8451;BME280;4262;50.980;13.892;2023-11-21T08:10:44;85400.94;;;-142.97;77.95
8451;BME280;4262;50.980;13.892;2023-11-21T08:13:22;87461.94;;;-142.97;77.11
8451;BME280;4262;50.980;13.892;2023-11-21T08:15:49;85479.72;;;-142.97;77.64
8451;BME280;4262;50.980;13.892;2023-11-21T08:18:16;85601.84;;;-142.97;77.89
8451;BME280;4262;50.980;13.892;2023-11-21T08:20:44;83187.59;;;-142.97;78.20
8451;BME280;4262;50.980;13.892;2023-11-21T08:23:15;81987.00;;;-142.97;78.17
8451;BME280;4262;50.980;13.892;2023-11-21T08:25:43;85158.66;;;-142.97;77.91
8451;BME280;4262;50.980;13.892;2023-11-21T08:28:10;82910.06;;;-142.97;78.35
8451;BME280;4262;50.980;13.892;2023-11-21T08:30:37;85302.44;;;-142.97;77.89
8451;BME280;4262;50.980;13.892;2023-11-21T08:33:05;83345.09;;;-142.97;78.12
8451;BME280;4262;50.980;13.892;2023-11-21T08:35:32;84640.66;;;-142.97;77.82
8451;BME280;4262;50.980;13.892;2023-11-21T08:37:59;84544.19;;;-142.97;78.27
8451;BME280;4262;50.980;13.892;2023-11-21T08:40:27;82148.38;;;-142.97;78.39
8451;BME280;4262;50.980;13.892;2023-11-21T08:42:54;80143.63;;;-142.97;78.58
8451;BME280;4262;50.980;13.892;2023-11-21T08:45:22;82207.41;;;-142.97;78.41
8451;BME280;4262;50.980;13.892;2023-11-21T08:47:48;78350.41;;;-142.97;78.82
8451;BME280;4262;50.980;13.892;2023-11-21T08:50:16;78680.66;;;-142.97;78.91
8451;BME280;4262;50.980;13.892;2023-11-21T08:52:44;60389.31;;;-142.97;80.97
8451;BME280;4262;50.980;13.892;2023-11-21T08:55:11;44906.25;;;-142.97;82.84
8451;BME280;4262;50.980;13.892;2023-11-21T08:57:42;37937.13;;;-142.97;83.72
8451;BME280;4262;50.980;13.892;2023-11-21T09:00:10;37439.88;;;-142.97;83.61
8451;BME280;4262;50.980;13.892;2023-11-21T09:02:38;36694.16;;;-142.97;83.71
8451;BME280;4262;50.980;13.892;2023-11-21T09:05:07;42415.63;;;-142.97;82.72
8451;BME280;4262;50.980;13.892;2023-11-21T09:07:35;43660.69;;;-142.97;82.46
8451;BME280;4262;50.980;13.892;2023-11-21T09:10:02;45155.41;;;-142.97;82.23
8451;BME280;4262;50.980;13.892;2023-11-21T09:12:29;43411.66;;;-142.97;82.44
8451;BME280;4262;50.980;13.892;2023-11-21T09:14:59;44657.09;;;-142.97;82.37
8451;BME280;4262;50.980;13.892;2023-11-21T09:17:26;40673.25;;;-142.97;82.96
8451;BME280;4262;50.980;13.892;2023-11-21T09:19:53;35948.59;;;-142.97;83.97
8451;BME280;4262;50.980;13.892;2023-11-21T09:22:20;28502.13;;;-142.97;85.35
8451;BME280;4262;50.980;13.892;2023-11-21T09:24:47;18846.50;;;-142.97;87.34
8451;BME280;4262;50.980;13.892;2023-11-21T09:27:14;19835.53;;;-142.97;87.09
8451;BME280;4262;50.980;13.892;2023-11-21T09:29:40;21319.63;;;-142.97;86.64
8451;BME280;4262;50.980;13.892;2023-11-21T09:32:09;20824.84;;;-142.97;86.48
8451;BME280;4262;50.980;13.892;2023-11-21T09:34:37;21567.03;;;-142.97;86.46
8451;BME280;4262;50.980;13.892;2023-11-21T09:37:05;17363.50;;;-142.97;87.09
8451;BME280;4262;50.980;13.892;2023-11-21T09:39:32;16869.34;;;-142.97;87.49
8451;BME280;4262;50.980;13.892;2023-11-21T09:42:06;17857.78;;;-142.97;87.31
8451;BME280;4262;50.980;13.892;2023-11-21T09:44:44;17857.78;;;-142.97;87.33
8451;BME280;4262;50.980;13.892;2023-11-21T09:47:15;18846.50;;;-142.97;86.83
8451;BME280;4262;50.980;13.892;2023-11-21T09:49:47;20577.50;;;-142.97;86.60
8451;BME280;4262;50.980;13.892;2023-11-21T09:52:22;16375.22;;;-142.97;87.26
8451;BME280;4262;50.980;13.892;2023-11-21T09:54:52;20330.16;;;-142.97;86.61
8451;BME280;4262;50.980;13.892;2023-11-21T09:57:20;21319.63;;;-142.97;86.64
8451;BME280;4262;50.980;13.892;2023-11-21T09:59:51;16128.19;;;-142.97;87.87
8451;BME280;4262;50.980;13.892;2023-11-21T10:02:22;12918.53;;;-142.97;88.34
8451;BME280;4262;50.980;13.892;2023-11-21T10:04:51;17363.50;;;-142.97;87.10
8451;BME280;4262;50.980;13.892;2023-11-21T10:07:21;16869.34;;;-142.97;87.34
8451;BME280;4262;50.980;13.892;2023-11-21T10:09:48;18104.94;;;-142.97;87.03
8451;BME280;4262;50.980;13.892;2023-11-21T10:12:16;20577.50;;;-142.97;86.46
8451;BME280;4262;50.980;13.892;2023-11-21T10:14:48;23794.59;;;-142.97;86.13
8451;BME280;4262;50.980;13.892;2023-11-21T10:17:15;16375.22;;;-142.97;87.39
8451;BME280;4262;50.980;13.892;2023-11-21T10:19:47;19340.97;;;-142.97;86.80
8451;BME280;4262;50.980;13.892;2023-11-21T10:22:14;17116.41;;;-142.97;87.18
8451;BME280;4262;50.980;13.892;2023-11-21T10:24:41;19340.97;;;-142.97;86.62
8451;BME280;4262;50.980;13.892;2023-11-21T10:27:09;22061.94;;;-142.97;86.29
8451;BME280;4262;50.980;13.892;2023-11-21T10:29:36;22061.94;;;-142.97;86.22
8451;BME280;4262;50.980;13.892;2023-11-21T10:32:03;18599.28;;;-142.97;86.99
8451;BME280;4262;50.980;13.892;2023-11-21T10:34:31;24537.44;;;-142.97;85.67
8451;BME280;4262;50.980;13.892;2023-11-21T10:37:11;32968.00;;;-142.97;83.76
8451;BME280;4262;50.980;13.892;2023-11-21T10:39:38;39926.81;;;-142.97;82.89
8451;BME280;4262;50.980;13.892;2023-11-21T10:42:08;37688.50;;;-142.97;83.53
8451;BME280;4262;50.980;13.892;2023-11-21T10:44:35;32471.50;;;-142.97;84.41
8451;BME280;4262;50.980;13.892;2023-11-21T10:47:03;28502.13;;;-142.97;85.22
8451;BME280;4262;50.980;13.892;2023-11-21T10:49:30;29742.03;;;-142.97;85.06
8451;BME280;4262;50.980;13.892;2023-11-21T10:51:57;28254.19;;;-142.97;85.04
8451;BME280;4262;50.980;13.892;2023-11-21T10:54:26;22804.41;;;-142.97;86.11
8451;BME280;4262;50.980;13.892;2023-11-21T10:56:56;29990.09;;;-142.97;84.79
8451;BME280;4262;50.980;13.892;2023-11-21T10:59:25;32719.75;;;-142.97;84.39
8451;BME280;4262;50.980;13.892;2023-11-21T11:01:57;25775.91;;;-142.97;85.87
8451;BME280;4262;50.980;13.892;2023-11-21T11:04:27;30982.44;;;-142.97;84.86
8451;BME280;4262;50.980;13.892;2023-11-21T11:06:56;28254.19;;;-142.97;85.42
8451;BME280;4262;50.980;13.892;2023-11-21T11:09:25;28006.28;;;-142.97;85.47
8451;BME280;4262;50.980;13.892;2023-11-21T11:11:52;28998.03;;;-142.97;85.31
8451;BME280;4262;50.980;13.892;2023-11-21T11:14:19;26519.19;;;-142.97;85.72
8451;BME280;4262;50.980;13.892;2023-11-21T11:16:53;27014.81;;;-142.97;85.64
8451;BME280;4262;50.980;13.892;2023-11-21T11:19:20;34457.97;;;-142.97;84.27
8451;BME280;4262;50.980;13.892;2023-11-21T11:21:52;35203.19;;;-142.97;84.14
8451;BME280;4262;50.980;13.892;2023-11-21T11:24:47;42664.59;;;-142.97;82.77
8451;BME280;4262;50.980;13.892;2023-11-21T11:27:30;45155.41;;;-142.97;82.26
8451;BME280;4262;50.980;13.892;2023-11-21T11:30:09;61140.28;;;-142.97;80.67
8451;BME280;4262;50.980;13.892;2023-11-21T11:32:45;58387.50;;;-142.97;80.96
8451;BME280;4262;50.980;13.892;2023-11-21T11:35:17;53637.97;;;-142.97;81.47
8451;BME280;4262;50.980;13.892;2023-11-21T11:37:46;57637.13;;;-142.97;81.39
8451;BME280;4262;50.980;13.892;2023-11-21T11:40:15;39678.03;;;-142.97;83.74
8451;BME280;4262;50.980;13.892;2023-11-21T11:42:56;40673.25;;;-142.97;83.28
8451;BME280;4262;50.980;13.892;2023-11-21T11:45:25;54137.63;;;-142.97;81.58
8451;BME280;4262;50.980;13.892;2023-11-21T11:48:00;59888.75;;;-142.97;81.10
8451;BME280;4262;50.980;13.892;2023-11-21T11:50:26;70667.00;;;-142.97;80.04
8451;BME280;4262;50.980;13.892;2023-11-21T11:52:53;70617.97;;;-142.97;80.02
8451;BME280;4262;50.980;13.892;2023-11-21T11:55:24;79748.34;;;-142.97;79.21
8451;BME280;4262;50.980;13.892;2023-11-21T11:57:52;75573.91;;;-142.97;79.76
8451;BME280;4262;50.980;13.892;2023-11-21T12:00:22;80995.34;;;-142.97;79.04
8451;BME280;4262;50.980;13.892;2023-11-21T12:02:51;83211.22;;;-142.97;79.09
8451;BME280;4262;50.980;13.892;2023-11-21T12:05:19;79105.34;;;-142.97;79.38
8451;BME280;4262;50.980;13.892;2023-11-21T12:07:48;80444.56;;;-142.97;79.27
8451;BME280;4262;50.980;13.892;2023-11-21T12:10:17;83689.59;;;-142.97;78.86
8451;BME280;4262;50.980;13.892;2023-11-21T12:12:47;83502.56;;;-142.97;79.00
8451;BME280;4262;50.980;13.892;2023-11-21T12:15:15;74285.66;;;-142.97;79.84
8451;BME280;4262;50.980;13.892;2023-11-21T12:17:43;74132.50;;;-142.97;79.89
8451;BME280;4262;50.980;13.892;2023-11-21T12:20:11;69161.03;;;-142.97;80.42
8451;BME280;4262;50.980;13.892;2023-11-21T12:22:42;77878.66;;;-142.97;79.58
8451;BME280;4262;50.980;13.892;2023-11-21T12:25:09;75306.78;;;-142.97;79.87
8451;BME280;4262;50.980;13.892;2023-11-21T12:27:44;76389.13;;;-142.97;79.91
8451;BME280;4262;50.980;13.892;2023-11-21T12:30:13;73127.44;;;-142.97;80.05
8451;BME280;4262;50.980;13.892;2023-11-21T12:32:41;70755.28;;;-142.97;80.35
8451;BME280;4262;50.980;13.892;2023-11-21T12:35:09;72687.81;;;-142.97;80.16
8451;BME280;4262;50.980;13.892;2023-11-21T12:37:37;74077.53;;;-142.97;79.94
8451;BME280;4262;50.980;13.892;2023-11-21T12:40:06;81499.03;;;-142.97;79.16
8451;BME280;4262;50.980;13.892;2023-11-21T12:42:37;83349.03;;;-142.97;79.03
8451;BME280;4262;50.980;13.892;2023-11-21T12:45:12;80660.94;;;-142.97;79.42
8451;BME280;4262;50.980;13.892;2023-11-21T12:47:48;73288.38;;;-142.97;80.09
8451;BME280;4262;50.980;13.892;2023-11-21T12:50:18;83433.66;;;-142.97;78.74
8451;BME280;4262;50.980;13.892;2023-11-21T12:52:50;86642.13;;;-142.97;78.16
8451;BME280;4262;50.980;13.892;2023-11-21T12:55:20;85471.84;;;-142.97;78.33
8451;BME280;4262;50.980;13.892;2023-11-21T12:57:48;87142.66;;;-142.97;78.20
8451;BME280;4262;50.980;13.892;2023-11-21T13:00:18;86315.03;;;-142.97;78.24